sensor_id;sensor_type;location;lat;lon;timestamp;noise_LAeq;noise_LA_min;noise_LA_max;noise_LA01;noise_LA95
64642;Laerm;59936;51.490;5.436;2022-12-18T00:02:56;40.58;36.25;67.59;;
64642;Laerm;59936;51.490;5.436;2022-12-18T00:07:57;40.63;35.96;68.30;;
64642;Laerm;59936;51.490;5.436;2022-12-18T00:13:00;44.12;35.90;78.15;;
64642;Laerm;59936;51.490;5.436;2022-12-18T00:18:03;39.76;35.75;44.39;;
64642;Laerm;59936;51.490;5.436;2022-12-18T00:23:06;44.68;34.74;77.22;;
64642;Laerm;59936;51.490;5.436;2022-12-18T00:28:11;38.51;34.79;46.74;;
64642;Laerm;59936;51.490;5.436;2022-12-18T00:33:13;38.42;34.88;47.76;;
64642;Laerm;59936;51.490;5.436;2022-12-18T00:38:15;37.75;34.33;51.51;;
64642;Laerm;59936;51.490;5.436;2022-12-18T00:43:18;38.28;34.39;55.79;;
64642;Laerm;59936;51.490;5.436;2022-12-18T00:48:20;38.53;34.13;48.10;;
64642;Laerm;59936;51.490;5.436;2022-12-18T00:53:23;38.86;34.80;52.64;;
64642;Laerm;59936;51.490;5.436;2022-12-18T00:58:26;38.32;33.90;49.35;;
64642;Laerm;59936;51.490;5.436;2022-12-18T01:03:28;38.56;32.55;64.84;;
64642;Laerm;59936;51.490;5.436;2022-12-18T01:08:29;37.26;33.77;48.53;;
64642;Laerm;59936;51.490;5.436;2022-12-18T01:13:33;36.61;32.77;45.58;;
64642;Laerm;59936;51.490;5.436;2022-12-18T01:18:34;36.79;32.13;63.34;;
64642;Laerm;59936;51.490;5.436;2022-12-18T01:23:37;36.41;33.31;44.99;;
64642;Laerm;59936;51.490;5.436;2022-12-18T01:28:40;37.27;33.84;44.30;;
64642;Laerm;59936;51.490;5.436;2022-12-18T01:33:42;36.82;33.11;45.28;;
64642;Laerm;59936;51.490;5.436;2022-12-18T01:38:45;36.71;32.86;44.05;;
64642;Laerm;59936;51.490;5.436;2022-12-18T01:43:53;36.84;32.93;53.78;;
64642;Laerm;59936;51.490;5.436;2022-12-18T01:48:58;36.38;32.76;44.51;;
64642;Laerm;59936;51.490;5.436;2022-12-18T01:54:01;36.27;32.72;41.88;;
64642;Laerm;59936;51.490;5.436;2022-12-18T01:59:09;37.90;33.45;45.82;;
64642;Laerm;59936;51.490;5.436;2022-12-18T02:04:21;36.77;32.77;56.43;;
64642;Laerm;59936;51.490;5.436;2022-12-18T02:09:32;37.42;33.44;56.03;;
64642;Laerm;59936;51.490;5.436;2022-12-18T02:14:44;36.44;32.31;45.07;;
64642;Laerm;59936;51.490;5.436;2022-12-18T02:20:07;36.54;32.57;45.30;;
64642;Laerm;59936;51.490;5.436;2022-12-18T02:25:27;35.86;31.56;47.68;;
64642;Laerm;59936;51.490;5.436;2022-12-18T02:30:37;35.90;31.93;43.64;;
64642;Laerm;59936;51.490;5.436;2022-12-18T02:35:42;37.06;31.97;44.18;;
64642;Laerm;59936;51.490;5.436;2022-12-18T02:40:46;35.48;32.22;40.06;;
64642;Laerm;59936;51.490;5.436;2022-12-18T02:45:55;35.98;31.95;45.21;;
64642;Laerm;59936;51.490;5.436;2022-12-18T02:51:07;36.29;32.11;44.78;;
64642;Laerm;59936;51.490;5.436;2022-12-18T02:56:17;36.28;32.65;42.07;;
64642;Laerm;59936;51.490;5.436;2022-12-18T03:01:30;35.50;31.83;45.18;;
64642;Laerm;59936;51.490;5.436;2022-12-18T03:06:40;36.60;32.49;42.81;;
64642;Laerm;59936;51.490;5.436;2022-12-18T03:11:47;37.15;33.24;44.09;;
64642;Laerm;59936;51.490;5.436;2022-12-18T03:17:17;36.95;32.88;45.35;;
64642;Laerm;59936;51.490;5.436;2022-12-18T03:22:23;36.64;33.11;44.17;;
64642;Laerm;59936;51.490;5.436;2022-12-18T03:27:29;36.34;32.74;42.64;;
64642;Laerm;59936;51.490;5.436;2022-12-18T03:32:39;37.03;32.92;42.90;;
64642;Laerm;59936;51.490;5.436;2022-12-18T03:37:44;39.28;33.07;49.26;;
64642;Laerm;59936;51.490;5.436;2022-12-18T03:42:50;37.12;33.00;45.35;;
64642;Laerm;59936;51.490;5.436;2022-12-18T03:48:01;37.55;33.29;43.38;;
64642;Laerm;59936;51.490;5.436;2022-12-18T03:53:17;37.20;32.89;44.77;;
64642;Laerm;59936;51.490;5.436;2022-12-18T03:58:25;35.80;32.16;41.13;;
64642;Laerm;59936;51.490;5.436;2022-12-18T04:03:31;37.27;32.28;65.21;;
64642;Laerm;59936;51.490;5.436;2022-12-18T04:08:35;36.59;32.56;44.13;;
64642;Laerm;59936;51.490;5.436;2022-12-18T04:13:38;38.15;32.26;52.24;;
64642;Laerm;59936;51.490;5.436;2022-12-18T04:18:43;36.23;32.35;45.80;;
64642;Laerm;59936;51.490;5.436;2022-12-18T04:23:45;36.64;32.82;45.40;;
64642;Laerm;59936;51.490;5.436;2022-12-18T04:28:47;37.12;32.72;45.65;;
64642;Laerm;59936;51.490;5.436;2022-12-18T04:33:50;38.00;33.29;60.25;;
64642;Laerm;59936;51.490;5.436;2022-12-18T04:38:51;37.22;33.37;47.74;;
64642;Laerm;59936;51.490;5.436;2022-12-18T04:43:53;37.88;33.48;63.57;;
64642;Laerm;59936;51.490;5.436;2022-12-18T04:48:56;37.41;32.41;44.15;;
64642;Laerm;59936;51.490;5.436;2022-12-18T04:53:58;38.14;33.56;45.95;;
64642;Laerm;59936;51.490;5.436;2022-12-18T04:59:01;37.15;33.51;42.36;;
64642;Laerm;59936;51.490;5.436;2022-12-18T05:04:04;36.78;32.43;45.43;;
64642;Laerm;59936;51.490;5.436;2022-12-18T05:09:07;38.23;33.52;52.47;;
64642;Laerm;59936;51.490;5.436;2022-12-18T05:14:09;37.83;32.74;44.49;;
64642;Laerm;59936;51.490;5.436;2022-12-18T05:19:12;37.74;32.64;55.03;;
64642;Laerm;59936;51.490;5.436;2022-12-18T05:24:14;38.06;33.94;46.95;;
64642;Laerm;59936;51.490;5.436;2022-12-18T05:29:15;39.20;34.54;48.93;;
64642;Laerm;59936;51.490;5.436;2022-12-18T05:34:18;38.30;34.13;44.94;;
64642;Laerm;59936;51.490;5.436;2022-12-18T05:39:21;38.90;34.07;45.04;;
64642;Laerm;59936;51.490;5.436;2022-12-18T05:44:23;38.72;34.28;44.94;;
64642;Laerm;59936;51.490;5.436;2022-12-18T05:49:27;38.96;34.62;46.61;;
64642;Laerm;59936;51.490;5.436;2022-12-18T05:54:28;39.20;34.06;46.46;;
64642;Laerm;59936;51.490;5.436;2022-12-18T05:59:31;38.72;33.87;47.69;;
64642;Laerm;59936;51.490;5.436;2022-12-18T06:04:34;38.21;34.14;44.31;;
64642;Laerm;59936;51.490;5.436;2022-12-18T06:09:36;39.03;34.19;46.88;;
64642;Laerm;59936;51.490;5.436;2022-12-18T06:14:38;38.79;34.61;47.17;;
64642;Laerm;59936;51.490;5.436;2022-12-18T06:19:41;53.94;35.20;69.17;;
64642;Laerm;59936;51.490;5.436;2022-12-18T06:24:43;39.32;35.47;45.66;;
64642;Laerm;59936;51.490;5.436;2022-12-18T06:29:44;38.64;34.71;45.11;;
64642;Laerm;59936;51.490;5.436;2022-12-18T06:34:47;39.26;35.22;44.45;;
64642;Laerm;59936;51.490;5.436;2022-12-18T06:39:49;41.94;35.97;53.31;;
64642;Laerm;59936;51.490;5.436;2022-12-18T06:44:51;40.89;36.09;49.73;;
64642;Laerm;59936;51.490;5.436;2022-12-18T06:49:54;40.18;35.89;46.41;;
64642;Laerm;59936;51.490;5.436;2022-12-18T06:54:56;42.37;36.22;62.15;;
64642;Laerm;59936;51.490;5.436;2022-12-18T06:59:57;43.58;35.19;65.27;;
64642;Laerm;59936;51.490;5.436;2022-12-18T07:05:01;48.51;35.52;73.53;;
64642;Laerm;59936;51.490;5.436;2022-12-18T07:10:03;40.71;36.15;63.59;;
64642;Laerm;59936;51.490;5.436;2022-12-18T07:15:07;46.29;36.54;64.76;;
64642;Laerm;59936;51.490;5.436;2022-12-18T07:20:11;42.28;36.39;70.02;;
64642;Laerm;59936;51.490;5.436;2022-12-18T07:25:12;51.70;37.32;81.73;;
64642;Laerm;59936;51.490;5.436;2022-12-18T07:30:14;46.10;37.27;60.52;;
64642;Laerm;59936;51.490;5.436;2022-12-18T07:35:17;40.96;36.77;53.03;;
64642;Laerm;59936;51.490;5.436;2022-12-18T07:40:20;42.19;36.97;64.96;;
64642;Laerm;59936;51.490;5.436;2022-12-18T07:45:22;45.88;37.34;64.08;;
64642;Laerm;59936;51.490;5.436;2022-12-18T07:50:25;42.04;37.31;62.73;;
64642;Laerm;59936;51.490;5.436;2022-12-18T07:55:27;40.92;36.83;57.93;;
64642;Laerm;59936;51.490;5.436;2022-12-18T08:00:29;46.04;38.08;63.11;;
64642;Laerm;59936;51.490;5.436;2022-12-18T08:05:32;43.93;38.12;61.81;;
64642;Laerm;59936;51.490;5.436;2022-12-18T08:10:33;42.11;37.96;55.35;;
64642;Laerm;59936;51.490;5.436;2022-12-18T08:15:35;47.46;38.33;73.80;;
64642;Laerm;59936;51.490;5.436;2022-12-18T08:20:38;43.64;38.42;65.12;;
64642;Laerm;59936;51.490;5.436;2022-12-18T08:25:40;42.84;37.86;57.80;;
64642;Laerm;59936;51.490;5.436;2022-12-18T08:30:42;46.83;38.10;65.22;;
64642;Laerm;59936;51.490;5.436;2022-12-18T08:35:45;42.07;38.40;61.03;;
64642;Laerm;59936;51.490;5.436;2022-12-18T08:40:46;48.53;38.44;66.46;;
64642;Laerm;59936;51.490;5.436;2022-12-18T08:45:48;48.48;39.23;70.10;;
64642;Laerm;59936;51.490;5.436;2022-12-18T08:50:55;43.21;39.09;57.91;;
64642;Laerm;59936;51.490;5.436;2022-12-18T08:55:57;43.40;38.74;54.46;;
64642;Laerm;59936;51.490;5.436;2022-12-18T09:01:00;43.79;39.22;61.48;;
64642;Laerm;59936;51.490;5.436;2022-12-18T09:06:05;44.96;39.24;64.15;;
64642;Laerm;59936;51.490;5.436;2022-12-18T09:11:13;45.02;39.03;67.78;;
64642;Laerm;59936;51.490;5.436;2022-12-18T09:16:16;43.51;38.79;64.12;;
64642;Laerm;59936;51.490;5.436;2022-12-18T09:21:20;50.52;38.63;79.16;;
64642;Laerm;59936;51.490;5.436;2022-12-18T09:26:25;43.23;38.91;55.49;;
64642;Laerm;59936;51.490;5.436;2022-12-18T09:31:28;47.73;38.85;66.34;;
64642;Laerm;59936;51.490;5.436;2022-12-18T09:36:31;48.94;39.26;65.08;;
64642;Laerm;59936;51.490;5.436;2022-12-18T09:41:43;44.04;39.40;54.24;;
64642;Laerm;59936;51.490;5.436;2022-12-18T09:46:53;47.90;39.53;61.48;;
64642;Laerm;59936;51.490;5.436;2022-12-18T09:52:04;45.45;40.07;58.72;;
64642;Laerm;59936;51.490;5.436;2022-12-18T09:57:14;44.12;39.54;64.34;;
64642;Laerm;59936;51.490;5.436;2022-12-18T10:02:20;45.25;40.14;75.17;;
64642;Laerm;59936;51.490;5.436;2022-12-18T10:07:32;43.58;39.65;61.02;;
64642;Laerm;59936;51.490;5.436;2022-12-18T10:12:48;43.63;40.46;58.68;;
64642;Laerm;59936;51.490;5.436;2022-12-18T10:18:06;48.13;39.84;63.46;;
64642;Laerm;59936;51.490;5.436;2022-12-18T10:23:26;47.09;40.11;62.51;;
64642;Laerm;59936;51.490;5.436;2022-12-18T10:28:32;47.00;40.04;63.76;;
64642;Laerm;59936;51.490;5.436;2022-12-18T10:33:36;50.19;39.63;70.37;;
64642;Laerm;59936;51.490;5.436;2022-12-18T10:38:39;44.06;39.94;61.61;;
64642;Laerm;59936;51.490;5.436;2022-12-18T10:43:41;44.56;39.99;73.23;;
64642;Laerm;59936;51.490;5.436;2022-12-18T10:48:53;43.63;40.59;56.40;;
64642;Laerm;59936;51.490;5.436;2022-12-18T10:54:01;47.36;41.15;63.16;;
64642;Laerm;59936;51.490;5.436;2022-12-18T10:59:06;43.98;40.79;54.18;;
64642;Laerm;59936;51.490;5.436;2022-12-18T11:04:09;44.04;41.18;53.79;;
64642;Laerm;59936;51.490;5.436;2022-12-18T11:09:22;45.09;40.59;58.04;;
64642;Laerm;59936;51.490;5.436;2022-12-18T11:14:29;48.15;39.71;66.33;;
64642;Laerm;59936;51.490;5.436;2022-12-18T11:19:34;46.44;40.04;66.52;;
64642;Laerm;59936;51.490;5.436;2022-12-18T11:24:40;43.84;40.34;61.31;;
64642;Laerm;59936;51.490;5.436;2022-12-18T11:29:42;45.54;40.87;66.09;;
64642;Laerm;59936;51.490;5.436;2022-12-18T11:34:50;46.13;39.60;66.81;;
64642;Laerm;59936;51.490;5.436;2022-12-18T11:40:00;45.82;40.24;64.54;;
64642;Laerm;59936;51.490;5.436;2022-12-18T11:45:23;43.70;39.82;63.81;;
64642;Laerm;59936;51.490;5.436;2022-12-18T11:50:41;50.55;41.05;66.74;;
64642;Laerm;59936;51.490;5.436;2022-12-18T11:56:16;51.14;42.49;69.63;;
64642;Laerm;59936;51.490;5.436;2022-12-18T12:01:43;51.62;39.69;74.13;;
64642;Laerm;59936;51.490;5.436;2022-12-18T12:06:59;42.31;39.17;57.38;;
64642;Laerm;59936;51.490;5.436;2022-12-18T12:12:24;49.11;40.23;65.61;;
64642;Laerm;59936;51.490;5.436;2022-12-18T12:17:37;48.36;40.42;64.49;;
64642;Laerm;59936;51.490;5.436;2022-12-18T12:22:53;54.33;40.12;84.22;;
64642;Laerm;59936;51.490;5.436;2022-12-18T12:28:15;43.10;38.97;58.38;;
64642;Laerm;59936;51.490;5.436;2022-12-18T12:33:34;49.69;39.79;69.73;;
64642;Laerm;59936;51.490;5.436;2022-12-18T12:38:43;43.85;39.89;65.97;;
64642;Laerm;59936;51.490;5.436;2022-12-18T12:43:48;49.07;40.79;66.93;;
64642;Laerm;59936;51.490;5.436;2022-12-18T12:48:53;45.05;40.59;66.74;;
64642;Laerm;59936;51.490;5.436;2022-12-18T12:54:00;47.50;40.82;71.20;;
64642;Laerm;59936;51.490;5.436;2022-12-18T12:59:15;44.99;40.98;61.05;;
64642;Laerm;59936;51.490;5.436;2022-12-18T13:04:41;44.88;40.53;58.92;;
64642;Laerm;59936;51.490;5.436;2022-12-18T13:10:25;49.78;40.55;63.79;;
64642;Laerm;59936;51.490;5.436;2022-12-18T13:15:36;49.96;40.32;68.99;;
64642;Laerm;59936;51.490;5.436;2022-12-18T13:20:42;49.68;40.67;68.27;;
64642;Laerm;59936;51.490;5.436;2022-12-18T13:25:44;46.11;40.01;75.91;;
64642;Laerm;59936;51.490;5.436;2022-12-18T13:30:52;43.80;39.85;59.25;;
64642;Laerm;59936;51.490;5.436;2022-12-18T13:36:02;48.11;40.81;64.18;;
64642;Laerm;59936;51.490;5.436;2022-12-18T13:41:26;44.54;39.52;54.80;;
64642;Laerm;59936;51.490;5.436;2022-12-18T13:46:43;42.68;39.46;61.84;;
64642;Laerm;59936;51.490;5.436;2022-12-18T13:51:49;50.21;40.28;68.16;;
64642;Laerm;59936;51.490;5.436;2022-12-18T13:56:52;44.30;39.88;63.17;;
64642;Laerm;59936;51.490;5.436;2022-12-18T14:01:57;44.20;39.48;53.59;;
64642;Laerm;59936;51.490;5.436;2022-12-18T14:07:04;43.13;39.42;54.51;;
64642;Laerm;59936;51.490;5.436;2022-12-18T14:12:16;48.97;39.52;67.63;;
64642;Laerm;59936;51.490;5.436;2022-12-18T14:17:37;51.45;41.88;68.51;;
64642;Laerm;59936;51.490;5.436;2022-12-18T14:22:43;45.29;40.54;56.20;;
64642;Laerm;59936;51.490;5.436;2022-12-18T14:27:50;60.98;40.41;76.32;;
64642;Laerm;59936;51.490;5.436;2022-12-18T14:33:09;48.43;39.26;67.24;;
64642;Laerm;59936;51.490;5.436;2022-12-18T14:38:22;42.94;39.64;65.43;;
64642;Laerm;59936;51.490;5.436;2022-12-18T14:43:26;50.54;39.18;67.43;;
64642;Laerm;59936;51.490;5.436;2022-12-18T14:48:38;53.02;39.73;67.03;;
64642;Laerm;59936;51.490;5.436;2022-12-18T14:53:43;48.20;39.37;60.91;;
64642;Laerm;59936;51.490;5.436;2022-12-18T14:58:49;46.34;39.03;64.05;;
64642;Laerm;59936;51.490;5.436;2022-12-18T15:03:55;46.99;38.23;64.23;;
64642;Laerm;59936;51.490;5.436;2022-12-18T15:08:58;49.17;38.56;65.74;;
64642;Laerm;59936;51.490;5.436;2022-12-18T15:14:31;44.00;38.55;56.25;;
64642;Laerm;59936;51.490;5.436;2022-12-18T15:19:39;43.38;39.03;57.19;;
64642;Laerm;59936;51.490;5.436;2022-12-18T15:24:41;42.97;38.60;68.82;;
64642;Laerm;59936;51.490;5.436;2022-12-18T15:29:43;45.97;38.45;57.73;;
64642;Laerm;59936;51.490;5.436;2022-12-18T15:35:14;48.29;38.35;69.67;;
64642;Laerm;59936;51.490;5.436;2022-12-18T15:40:19;52.97;39.47;81.23;;
64642;Laerm;59936;51.490;5.436;2022-12-18T15:45:21;43.70;37.41;56.10;;
64642;Laerm;59936;51.490;5.436;2022-12-18T15:50:25;52.04;37.83;85.90;;
64642;Laerm;59936;51.490;5.436;2022-12-18T15:55:27;42.49;38.70;58.06;;
64642;Laerm;59936;51.490;5.436;2022-12-18T16:00:46;42.49;38.71;63.13;;
64642;Laerm;59936;51.490;5.436;2022-12-18T16:05:50;41.50;37.61;64.11;;
64642;Laerm;59936;51.490;5.436;2022-12-18T16:10:52;49.42;38.06;67.75;;
64642;Laerm;59936;51.490;5.436;2022-12-18T16:15:55;50.11;38.85;69.40;;
64642;Laerm;59936;51.490;5.436;2022-12-18T16:20:59;48.94;38.86;65.89;;
64642;Laerm;59936;51.490;5.436;2022-12-18T16:26:01;48.17;38.32;74.50;;
64642;Laerm;59936;51.490;5.436;2022-12-18T16:31:05;50.53;38.69;71.99;;
64642;Laerm;59936;51.490;5.436;2022-12-18T16:36:08;49.19;38.99;74.83;;
64642;Laerm;59936;51.490;5.436;2022-12-18T16:41:18;41.76;38.78;48.22;;
64642;Laerm;59936;51.490;5.436;2022-12-18T16:46:32;47.59;38.24;63.09;;
64642;Laerm;59936;51.490;5.436;2022-12-18T16:51:35;42.56;38.33;64.29;;
64642;Laerm;59936;51.490;5.436;2022-12-18T16:56:37;42.50;37.95;53.15;;
64642;Laerm;59936;51.490;5.436;2022-12-18T17:01:39;48.27;37.81;64.75;;
64642;Laerm;59936;51.490;5.436;2022-12-18T17:06:44;51.91;38.91;78.34;;
64642;Laerm;59936;51.490;5.436;2022-12-18T17:11:53;50.07;38.81;68.96;;
64642;Laerm;59936;51.490;5.436;2022-12-18T17:16:55;43.02;39.24;53.12;;
64642;Laerm;59936;51.490;5.436;2022-12-18T17:21:58;43.59;38.64;62.60;;
64642;Laerm;59936;51.490;5.436;2022-12-18T17:27:00;42.35;38.52;50.79;;
64642;Laerm;59936;51.490;5.436;2022-12-18T17:32:02;41.55;37.98;52.06;;
64642;Laerm;59936;51.490;5.436;2022-12-18T17:37:05;42.30;38.55;52.72;;
64642;Laerm;59936;51.490;5.436;2022-12-18T17:42:07;42.85;37.83;50.12;;
64642;Laerm;59936;51.490;5.436;2022-12-18T17:47:11;46.60;38.28;62.30;;
64642;Laerm;59936;51.490;5.436;2022-12-18T17:52:14;42.35;38.24;53.69;;
64642;Laerm;59936;51.490;5.436;2022-12-18T17:57:17;47.35;36.89;71.10;;
64642;Laerm;59936;51.490;5.436;2022-12-18T18:02:19;41.84;37.93;59.12;;
64642;Laerm;59936;51.490;5.436;2022-12-18T18:07:22;42.16;38.34;62.93;;
64642;Laerm;59936;51.490;5.436;2022-12-18T18:12:24;43.19;38.89;65.28;;
64642;Laerm;59936;51.490;5.436;2022-12-18T18:17:43;42.35;38.66;51.67;;
64642;Laerm;59936;51.490;5.436;2022-12-18T18:22:46;50.74;39.38;70.38;;
64642;Laerm;59936;51.490;5.436;2022-12-18T18:27:48;49.79;40.03;70.24;;
64642;Laerm;59936;51.490;5.436;2022-12-18T18:32:50;50.16;39.13;66.00;;
64642;Laerm;59936;51.490;5.436;2022-12-18T18:37:54;42.98;38.73;58.03;;
64642;Laerm;59936;51.490;5.436;2022-12-18T18:42:56;42.51;39.38;63.18;;
64642;Laerm;59936;51.490;5.436;2022-12-18T18:47:59;43.29;39.18;53.56;;
64642;Laerm;59936;51.490;5.436;2022-12-18T18:53:02;42.04;38.85;52.13;;
64642;Laerm;59936;51.490;5.436;2022-12-18T18:58:04;42.37;39.01;66.02;;
64642;Laerm;59936;51.490;5.436;2022-12-18T19:03:05;42.70;38.94;60.13;;
64642;Laerm;59936;51.490;5.436;2022-12-18T19:08:08;41.74;38.17;51.32;;
64642;Laerm;59936;51.490;5.436;2022-12-18T19:13:12;42.66;39.25;50.86;;
64642;Laerm;59936;51.490;5.436;2022-12-18T19:18:25;42.94;38.91;64.77;;
64642;Laerm;59936;51.490;5.436;2022-12-18T19:23:29;42.86;38.86;58.27;;
64642;Laerm;59936;51.490;5.436;2022-12-18T19:28:33;41.28;38.17;54.20;;
64642;Laerm;59936;51.490;5.436;2022-12-18T19:33:38;43.82;40.31;53.63;;
64642;Laerm;59936;51.490;5.436;2022-12-18T19:38:41;42.66;39.50;63.47;;
64642;Laerm;59936;51.490;5.436;2022-12-18T19:43:44;41.90;38.60;49.21;;
64642;Laerm;59936;51.490;5.436;2022-12-18T19:48:48;41.34;38.47;44.87;;
64642;Laerm;59936;51.490;5.436;2022-12-18T19:53:53;42.24;38.97;52.26;;
64642;Laerm;59936;51.490;5.436;2022-12-18T19:58:55;41.90;38.49;50.87;;
64642;Laerm;59936;51.490;5.436;2022-12-18T20:03:57;41.70;37.82;48.40;;
64642;Laerm;59936;51.490;5.436;2022-12-18T20:09:04;42.16;39.38;52.44;;
64642;Laerm;59936;51.490;5.436;2022-12-18T20:14:06;42.46;39.11;51.76;;
64642;Laerm;59936;51.490;5.436;2022-12-18T20:19:10;42.70;39.24;47.40;;
64642;Laerm;59936;51.490;5.436;2022-12-18T20:24:14;43.78;40.85;57.58;;
64642;Laerm;59936;51.490;5.436;2022-12-18T20:29:16;43.34;40.79;50.34;;
64642;Laerm;59936;51.490;5.436;2022-12-18T20:34:18;43.07;40.41;49.66;;
64642;Laerm;59936;51.490;5.436;2022-12-18T20:39:21;43.27;40.37;59.27;;
64642;Laerm;59936;51.490;5.436;2022-12-18T20:44:24;44.05;40.49;56.55;;
64642;Laerm;59936;51.490;5.436;2022-12-18T20:49:27;43.27;39.89;49.31;;
64642;Laerm;59936;51.490;5.436;2022-12-18T20:54:31;52.35;40.31;70.10;;
64642;Laerm;59936;51.490;5.436;2022-12-18T20:59:33;42.95;40.07;49.38;;
64642;Laerm;59936;51.490;5.436;2022-12-18T21:04:35;43.82;40.28;56.65;;
64642;Laerm;59936;51.490;5.436;2022-12-18T21:09:39;54.22;40.18;70.90;;
64642;Laerm;59936;51.490;5.436;2022-12-18T21:14:42;43.90;40.78;51.31;;
64642;Laerm;59936;51.490;5.436;2022-12-18T21:19:44;43.18;40.46;51.64;;
64642;Laerm;59936;51.490;5.436;2022-12-18T21:24:47;43.27;40.27;52.58;;
64642;Laerm;59936;51.490;5.436;2022-12-18T21:29:49;43.24;40.23;50.40;;
64642;Laerm;59936;51.490;5.436;2022-12-18T21:34:51;53.20;41.09;71.62;;
64642;Laerm;59936;51.490;5.436;2022-12-18T21:39:54;44.35;41.60;49.77;;
64642;Laerm;59936;51.490;5.436;2022-12-18T21:44:56;44.89;41.19;52.23;;
64642;Laerm;59936;51.490;5.436;2022-12-18T21:49:58;44.63;41.68;52.87;;
64642;Laerm;59936;51.490;5.436;2022-12-18T21:55:02;45.23;42.01;59.56;;
64642;Laerm;59936;51.490;5.436;2022-12-18T22:00:08;45.55;42.15;56.63;;
64642;Laerm;59936;51.490;5.436;2022-12-18T22:05:11;47.70;42.24;66.46;;
64642;Laerm;59936;51.490;5.436;2022-12-18T22:10:14;43.30;40.11;51.90;;
64642;Laerm;59936;51.490;5.436;2022-12-18T22:15:16;53.21;40.00;68.94;;
64642;Laerm;59936;51.490;5.436;2022-12-18T22:20:18;45.54;40.43;60.22;;
64642;Laerm;59936;51.490;5.436;2022-12-18T22:25:21;43.60;39.93;55.64;;
64642;Laerm;59936;51.490;5.436;2022-12-18T22:30:23;49.39;40.18;66.58;;
64642;Laerm;59936;51.490;5.436;2022-12-18T22:35:25;44.59;40.10;56.31;;
64642;Laerm;59936;51.490;5.436;2022-12-18T22:40:28;44.52;41.78;54.42;;
64642;Laerm;59936;51.490;5.436;2022-12-18T22:45:30;44.77;41.72;53.54;;
64642;Laerm;59936;51.490;5.436;2022-12-18T22:50:31;43.93;40.63;54.40;;
64642;Laerm;59936;51.490;5.436;2022-12-18T22:55:35;44.53;41.05;58.82;;
64642;Laerm;59936;51.490;5.436;2022-12-18T23:00:36;44.30;41.15;54.75;;
64642;Laerm;59936;51.490;5.436;2022-12-18T23:05:38;45.65;42.10;54.09;;
64642;Laerm;59936;51.490;5.436;2022-12-18T23:10:43;46.03;42.15;61.15;;
64642;Laerm;59936;51.490;5.436;2022-12-18T23:15:44;44.83;41.56;59.72;;
64642;Laerm;59936;51.490;5.436;2022-12-18T23:20:47;45.95;40.91;68.21;;
64642;Laerm;59936;51.490;5.436;2022-12-18T23:26:00;43.80;40.03;58.88;;
64642;Laerm;59936;51.490;5.436;2022-12-18T23:31:04;44.03;39.57;56.99;;
64642;Laerm;59936;51.490;5.436;2022-12-18T23:36:08;42.05;38.49;54.98;;
64642;Laerm;59936;51.490;5.436;2022-12-18T23:41:15;43.31;38.04;59.13;;
64642;Laerm;59936;51.490;5.436;2022-12-18T23:46:21;43.22;39.24;54.56;;
64642;Laerm;59936;51.490;5.436;2022-12-18T23:51:25;45.03;39.06;65.46;;
64642;Laerm;59936;51.490;5.436;2022-12-18T23:56:29;44.79;38.81;66.82;;
